createdAt,value
2022-11-07T00:01:47.055Z,101457.25
2022-11-07T00:04:14.346Z,101457.38
2022-11-07T00:06:41.626Z,101457.41
2022-11-07T00:09:08.598Z,101461.97
2022-11-07T00:11:35.621Z,101462.03
2022-11-07T00:14:02.734Z,101456.75
2022-11-07T00:16:30.666Z,101454.97
2022-11-07T00:18:57.643Z,101458.56
2022-11-07T00:21:24.619Z,101461.22
2022-11-07T00:23:51.588Z,101455.09
2022-11-07T00:26:18.758Z,101451.56
2022-11-07T00:28:46.028Z,101457.00
2022-11-07T00:31:15.078Z,101450.88
2022-11-07T00:33:43.296Z,101467.84
2022-11-07T00:36:20.407Z,101466.19
2022-11-07T00:38:48.166Z,101470.72
2022-11-07T00:41:15.951Z,101469.00
2022-11-07T00:43:43.154Z,101468.16
2022-11-07T00:46:12.206Z,101459.34
2022-11-07T00:48:40.070Z,101465.72
2022-11-07T00:51:26.397Z,101470.22
2022-11-07T00:53:53.611Z,101476.41
2022-11-07T00:56:24.633Z,101479.31
2022-11-07T00:58:57.019Z,101488.38
2022-11-07T01:01:30.815Z,101492.13
2022-11-07T01:04:17.083Z,101491.47
2022-11-07T01:06:46.258Z,101487.13
2022-11-07T01:09:20.985Z,101491.56
2022-11-07T01:11:49.678Z,101488.09
2022-11-07T01:14:19.927Z,101489.91
2022-11-07T01:16:47.564Z,101479.31
2022-11-07T01:19:14.965Z,101483.75
2022-11-07T01:21:43.099Z,101483.81
2022-11-07T01:24:12.114Z,101486.47
2022-11-07T01:26:41.286Z,101479.44
2022-11-07T01:29:08.538Z,101484.75
2022-11-07T01:31:36.158Z,101480.28
2022-11-07T01:34:03.351Z,101473.28
2022-11-07T01:36:30.348Z,101479.56
2022-11-07T01:38:57.630Z,101484.91
2022-11-07T01:41:32.702Z,101478.81
2022-11-07T01:44:22.858Z,101470.94
2022-11-07T01:46:50.826Z,101470.84
2022-11-07T01:49:31.419Z,101459.38
2022-11-07T01:52:33.060Z,101459.47
2022-11-07T01:55:38.745Z,101455.06
2022-11-07T01:58:08.806Z,101450.59
2022-11-07T02:00:37.460Z,101448.94
2022-11-07T02:03:11.874Z,101448.00
2022-11-07T02:05:47.279Z,101460.56
2022-11-07T02:08:15.169Z,101465.09
2022-11-07T02:10:44.548Z,101465.13
2022-11-07T02:13:23.054Z,101456.41
2022-11-07T02:15:50.695Z,101470.56
2022-11-07T02:18:18.027Z,101464.47
2022-11-07T02:20:46.777Z,101464.47
2022-11-07T02:23:27.605Z,101463.63
2022-11-07T02:25:55.112Z,101467.22
2022-11-07T02:28:26.023Z,101465.56
2022-11-07T02:30:52.982Z,101464.72
2022-11-07T02:33:23.280Z,101466.59
2022-11-07T02:35:53.039Z,101467.50
2022-11-07T02:38:32.233Z,101471.09
2022-11-07T02:41:05.410Z,101465.78
2022-11-07T02:43:35.023Z,101468.44
2022-11-07T02:46:06.478Z,101482.69
2022-11-07T02:48:43.978Z,101490.78
2022-11-07T02:51:11.079Z,101486.34
2022-11-07T02:53:38.603Z,101492.63
2022-11-07T02:56:07.748Z,101491.75
2022-11-07T02:58:35.935Z,101495.28
2022-11-07T03:01:07.114Z,101487.28
2022-11-07T03:03:40.423Z,101493.56
2022-11-07T03:06:10.418Z,101488.34
2022-11-07T03:08:37.891Z,101491.09
2022-11-07T03:11:06.087Z,101485.81
2022-11-07T03:13:33.348Z,101478.88
2022-11-07T03:16:04.637Z,101487.81
2022-11-07T03:18:31.555Z,101488.66
2022-11-07T03:20:58.439Z,101486.09
2022-11-07T03:23:25.315Z,101489.59
2022-11-07T03:25:52.266Z,101484.28
2022-11-07T03:28:19.215Z,101480.75
2022-11-07T03:30:46.205Z,101484.44
2022-11-07T03:33:13.561Z,101486.22
2022-11-07T03:35:40.722Z,101488.03
2022-11-07T03:38:07.626Z,101491.63
2022-11-07T03:40:34.527Z,101487.28
2022-11-07T03:43:01.504Z,101490.91
2022-11-07T03:45:28.694Z,101482.91
2022-11-07T03:47:55.555Z,101486.41
2022-11-07T03:50:22.689Z,101489.94
2022-11-07T03:52:49.637Z,101486.44
2022-11-07T03:55:18.380Z,101489.19
2022-11-07T03:57:47.127Z,101490.97
2022-11-07T04:00:15.859Z,101495.47
2022-11-07T04:02:44.828Z,101494.72
2022-11-07T04:05:14.571Z,101493.84
2022-11-07T04:07:41.453Z,101493.84
2022-11-07T04:10:08.658Z,101489.38
2022-11-07T04:12:53.911Z,101502.72
2022-11-07T04:15:39.394Z,101500.25
2022-11-07T04:18:06.353Z,101501.28
2022-11-07T04:20:33.422Z,101513.75
2022-11-07T04:23:00.378Z,101503.06
2022-11-07T04:25:45.795Z,101513.56
2022-11-07T04:28:17.042Z,101521.44
2022-11-07T04:30:44.516Z,101513.31
2022-11-07T04:33:11.512Z,101514.19
2022-11-07T04:35:38.558Z,101515.06
2022-11-07T04:38:05.530Z,101520.38
2022-11-07T04:40:32.736Z,101530.16
2022-11-07T04:42:59.696Z,101538.13
2022-11-07T04:45:26.817Z,101528.44
2022-11-07T04:47:53.877Z,101528.44
2022-11-07T04:50:21.098Z,101526.56
2022-11-07T04:52:48.337Z,101523.00
2022-11-07T04:55:25.419Z,101526.53
2022-11-07T04:57:53.309Z,101546.00
2022-11-07T05:00:21.340Z,101524.72
2022-11-07T05:02:49.636Z,101528.22
2022-11-07T05:05:18.552Z,101529.94
2022-11-07T05:07:45.583Z,101535.25
2022-11-07T05:10:30.729Z,101538.84
2022-11-07T05:12:57.739Z,101534.41
2022-11-07T05:15:24.816Z,101535.28
2022-11-07T05:17:51.810Z,101545.91
2022-11-07T05:20:30.512Z,101541.56
2022-11-07T05:23:18.450Z,101544.19
2022-11-07T05:25:52.032Z,101541.56
2022-11-07T05:28:33.707Z,101541.63
2022-11-07T05:31:06.316Z,101538.06
2022-11-07T05:33:33.405Z,101540.78
2022-11-07T05:36:20.088Z,101551.53
2022-11-07T05:38:51.080Z,101551.63
2022-11-07T05:41:21.452Z,101549.09
2022-11-07T05:43:48.869Z,101553.59
2022-11-07T05:46:15.826Z,101555.44
2022-11-07T05:48:42.825Z,101550.16
2022-11-07T05:51:09.956Z,101554.56
2022-11-07T05:53:36.950Z,101562.44
2022-11-07T05:56:04.694Z,101562.38
2022-11-07T05:58:32.451Z,101572.91
2022-11-07T06:01:05.920Z,101564.94
2022-11-07T06:03:33.724Z,101565.00
2022-11-07T06:06:00.896Z,101567.75
2022-11-07T06:08:28.071Z,101571.38
2022-11-07T06:10:55.287Z,101582.03
2022-11-07T06:13:22.557Z,101579.41
2022-11-07T06:15:49.533Z,101568.91
2022-11-07T06:18:20.964Z,101585.72
2022-11-07T06:20:47.953Z,101585.72
2022-11-07T06:23:16.074Z,101599.09
2022-11-07T06:25:43.578Z,101595.59
2022-11-07T06:28:12.952Z,101607.09
2022-11-07T06:30:40.742Z,101614.28
2022-11-07T06:33:15.886Z,101621.47
2022-11-07T06:35:44.010Z,101617.06
2022-11-07T06:38:14.099Z,101627.69
2022-11-07T06:40:42.759Z,101626.81
2022-11-07T06:43:14.862Z,101627.75
2022-11-07T06:45:43.400Z,101637.44
2022-11-07T06:48:11.265Z,101648.94
2022-11-07T06:50:39.108Z,101654.16
2022-11-07T06:53:10.402Z,101651.41
2022-11-07T06:55:39.533Z,101646.88
2022-11-07T06:58:07.814Z,101647.75
2022-11-07T07:00:37.094Z,101650.31
2022-11-07T07:03:05.063Z,101663.53
2022-11-07T07:05:34.258Z,101676.75
2022-11-07T07:08:02.160Z,101681.97
2022-11-07T07:10:30.366Z,101683.69
2022-11-07T07:12:57.783Z,101683.59
2022-11-07T07:15:24.941Z,101688.97
2022-11-07T07:17:51.808Z,101689.81
2022-11-07T07:20:19.739Z,101695.91
2022-11-07T07:22:50.261Z,101694.00
2022-11-07T07:25:22.453Z,101693.91
2022-11-07T07:27:49.395Z,101709.78
2022-11-07T07:30:16.601Z,101705.25
2022-11-07T07:32:43.929Z,101697.19
2022-11-07T07:35:10.853Z,101701.53
2022-11-07T07:37:37.918Z,101697.81
2022-11-07T07:40:05.439Z,101708.38
2022-11-07T07:42:32.551Z,101695.84
2022-11-07T07:44:59.460Z,101702.00
2022-11-07T07:47:26.517Z,101705.44
2022-11-07T07:49:53.912Z,101701.81
2022-11-07T07:52:20.809Z,101698.97
2022-11-07T07:54:47.733Z,101714.03
2022-11-07T07:57:14.992Z,101703.22
2022-11-07T07:59:42.264Z,101709.47
2022-11-07T08:02:12.300Z,101716.44
2022-11-07T08:04:41.325Z,101721.47
2022-11-07T08:07:09.919Z,101712.69
2022-11-07T08:09:37.979Z,101719.66
2022-11-07T08:12:08.827Z,101714.97
2022-11-07T08:14:35.857Z,101719.22
2022-11-07T08:17:03.074Z,101717.25
2022-11-07T08:19:30.021Z,101721.53
2022-11-07T08:21:57.049Z,101720.44
2022-11-07T08:24:24.233Z,101718.53
2022-11-07T08:26:51.392Z,101727.22
2022-11-07T08:29:18.561Z,101727.06
2022-11-07T08:31:45.614Z,101725.19
2022-11-07T08:34:12.590Z,101729.41
2022-11-07T08:36:40.040Z,101728.34
2022-11-07T08:39:07.124Z,101724.84
2022-11-07T08:41:34.146Z,101731.06
2022-11-07T08:44:01.203Z,101730.69
2022-11-07T08:46:28.164Z,101726.00
2022-11-07T08:48:55.093Z,101730.22
2022-11-07T08:51:22.073Z,101739.75
2022-11-07T08:53:49.142Z,101743.09
2022-11-07T08:56:16.443Z,101756.06
2022-11-07T08:58:44.718Z,101758.63
2022-11-07T09:01:12.185Z,101751.25
2022-11-07T09:03:52.975Z,101761.66
2022-11-07T09:06:24.065Z,101759.78
2022-11-07T09:08:51.004Z,101760.41
2022-11-07T09:11:19.268Z,101769.91
2022-11-07T09:13:47.229Z,101768.97
2022-11-07T09:16:17.532Z,101774.25
2022-11-07T09:18:46.400Z,101767.72
2022-11-07T09:21:19.058Z,101777.13
2022-11-07T09:23:49.044Z,101764.63
2022-11-07T09:26:15.991Z,101765.94
2022-11-07T09:28:47.044Z,101771.91
2022-11-07T09:31:17.989Z,101769.97
2022-11-07T09:33:44.903Z,101772.44
2022-11-07T09:36:13.120Z,101781.91
2022-11-07T09:38:40.150Z,101786.97
2022-11-07T09:41:43.979Z,101790.94
2022-11-07T09:44:41.256Z,101790.81
2022-11-07T09:47:29.019Z,101787.97
2022-11-07T09:50:01.034Z,101785.94
2022-11-07T09:52:42.021Z,101788.22
2022-11-07T09:55:15.014Z,101778.94
2022-11-07T09:57:42.787Z,101777.88
2022-11-07T10:00:20.448Z,101787.34
2022-11-07T10:02:55.948Z,101785.56
2022-11-07T10:05:56.857Z,101783.69
2022-11-07T10:08:38.911Z,101787.91
2022-11-07T10:11:18.480Z,101789.28
2022-11-07T10:13:48.314Z,101783.50
2022-11-07T10:16:36.248Z,101779.25
2022-11-07T10:19:21.211Z,101778.75
2022-11-07T10:22:12.042Z,101773.78
2022-11-07T10:25:48.519Z,101777.03
2022-11-07T10:28:20.265Z,101776.03
2022-11-07T10:30:55.936Z,101765.91
2022-11-07T10:33:42.813Z,101772.97
2022-11-07T10:36:31.802Z,101760.13
2022-11-07T10:38:58.949Z,101750.00
2022-11-07T10:41:29.816Z,101762.09
2022-11-07T10:44:22.321Z,101748.41
2022-11-07T10:46:51.647Z,101743.47
2022-11-07T10:49:25.059Z,101748.38
2022-11-07T10:51:53.405Z,101749.81
2022-11-07T10:54:25.783Z,101747.63
2022-11-07T10:57:18.914Z,101750.00
2022-11-07T10:59:52.162Z,101748.84
2022-11-07T11:02:22.180Z,101759.16
2022-11-07T11:04:58.982Z,101750.25
2022-11-07T11:07:35.287Z,101742.69
2022-11-07T11:10:03.679Z,101742.06
2022-11-07T11:12:34.858Z,101738.00
2022-11-07T11:15:19.289Z,101742.25
2022-11-07T11:17:47.064Z,101728.69
2022-11-07T11:20:46.046Z,101736.34
2022-11-07T11:23:23.733Z,101730.84
2022-11-07T11:25:59.354Z,101719.75
2022-11-07T11:28:45.780Z,101724.66
2022-11-07T11:31:24.399Z,101716.28
2022-11-07T11:34:00.462Z,101715.00
2022-11-07T11:36:33.238Z,101714.59
2022-11-07T11:39:03.637Z,101712.19
2022-11-07T11:41:50.097Z,101702.78
2022-11-07T11:44:31.581Z,101699.50
2022-11-07T11:47:38.009Z,101695.53
2022-11-07T11:50:15.867Z,101693.00
2022-11-07T11:52:44.366Z,101686.53
2022-11-07T11:55:17.338Z,101680.84
2022-11-07T11:58:01.753Z,101673.19
2022-11-07T12:00:36.555Z,101675.81
2022-11-07T12:03:19.980Z,101670.16
2022-11-07T12:06:12.948Z,101674.22
2022-11-07T12:08:57.439Z,101673.75
2022-11-07T12:11:38.170Z,101673.38
2022-11-07T12:14:32.679Z,101664.00
2022-11-07T12:17:25.569Z,101663.56
2022-11-07T12:20:06.947Z,101656.88
2022-11-07T12:23:07.427Z,101658.94
2022-11-07T12:26:03.197Z,101655.09
2022-11-07T12:28:52.466Z,101649.97
2022-11-07T12:31:46.246Z,101648.44
2022-11-07T12:34:29.424Z,101653.22
2022-11-07T12:37:50.248Z,101649.78
2022-11-07T12:40:34.409Z,101644.53
2022-11-07T12:43:01.656Z,101632.69
2022-11-07T12:46:08.791Z,101633.38
2022-11-07T12:48:53.772Z,101639.41
2022-11-07T12:51:27.633Z,101637.44
2022-11-07T12:54:28.234Z,101641.06
2022-11-07T12:56:57.910Z,101641.84
2022-11-07T12:59:32.306Z,101640.41
2022-11-07T13:02:12.118Z,101636.66
2022-11-07T13:04:49.621Z,101631.84
2022-11-07T13:07:31.762Z,101630.69
2022-11-07T13:10:22.138Z,101631.38
2022-11-07T13:13:11.278Z,101633.63
2022-11-07T13:16:01.200Z,101629.97
2022-11-07T13:18:28.110Z,101625.25
2022-11-07T13:21:05.285Z,101622.16
2022-11-07T13:23:33.346Z,101623.50
2022-11-07T13:26:14.831Z,101623.31
2022-11-07T13:29:00.034Z,101625.72
2022-11-07T13:31:46.042Z,101623.31
2022-11-07T13:34:19.016Z,101626.47
2022-11-07T13:36:49.299Z,101619.78
2022-11-07T13:39:17.817Z,101620.38
2022-11-07T13:41:46.316Z,101623.59
2022-11-07T13:44:27.196Z,101622.47
2022-11-07T13:46:57.321Z,101628.38
2022-11-07T13:49:30.431Z,101628.19
2022-11-07T13:52:04.524Z,101634.22
2022-11-07T13:54:43.956Z,101627.78
2022-11-07T13:57:19.619Z,101629.41
2022-11-07T13:59:59.882Z,101633.09
2022-11-07T14:02:31.325Z,101629.69
2022-11-07T14:05:17.192Z,101629.03
2022-11-07T14:07:54.409Z,101625.41
2022-11-07T14:10:40.166Z,101630.78
2022-11-07T14:13:10.334Z,101625.28
2022-11-07T14:15:47.659Z,101633.28
2022-11-07T14:18:17.790Z,101627.00
2022-11-07T14:20:52.580Z,101634.34
2022-11-07T14:23:30.276Z,101638.00
2022-11-07T14:26:03.325Z,101637.25
2022-11-07T14:28:37.186Z,101626.47
2022-11-07T14:31:20.523Z,101621.94
2022-11-07T14:33:54.271Z,101623.78
2022-11-07T14:36:22.969Z,101628.50
2022-11-07T14:39:12.722Z,101627.84
2022-11-07T14:41:44.470Z,101629.09
2022-11-07T14:44:36.299Z,101626.72
2022-11-07T14:47:17.674Z,101631.53
2022-11-07T14:49:48.182Z,101632.69
2022-11-07T14:53:02.284Z,101627.72
2022-11-07T14:55:49.454Z,101623.50
2022-11-07T14:58:21.909Z,101629.28
2022-11-07T15:01:10.754Z,101626.78
2022-11-07T15:03:54.038Z,101627.16
2022-11-07T15:06:28.942Z,101627.56
2022-11-07T15:09:03.472Z,101622.56
2022-11-07T15:11:40.513Z,101626.50
2022-11-07T15:14:30.058Z,101629.53
2022-11-07T15:16:58.619Z,101621.00
2022-11-07T15:19:25.722Z,101620.44
2022-11-07T15:21:52.566Z,101617.06
2022-11-07T15:24:47.714Z,101616.41
2022-11-07T15:27:28.081Z,101616.78
2022-11-07T15:30:05.053Z,101622.53
2022-11-07T15:32:41.778Z,101628.28
2022-11-07T15:35:42.426Z,101625.88
2022-11-07T15:38:05.255Z,101627.13
2022-11-07T15:40:32.867Z,101628.28
2022-11-07T15:42:59.762Z,101622.28
2022-11-07T15:45:26.840Z,101627.97
2022-11-07T15:47:53.812Z,101619.19
2022-11-07T15:50:24.789Z,101629.25
2022-11-07T15:52:53.439Z,101623.22
2022-11-07T15:55:23.647Z,101632.44
2022-11-07T15:57:53.822Z,101632.59
2022-11-07T16:00:25.063Z,101640.84
2022-11-07T16:02:53.321Z,101637.59
2022-11-07T16:05:20.428Z,101636.97
2022-11-07T16:07:47.553Z,101628.31
2022-11-07T16:10:23.174Z,101636.53
2022-11-07T16:12:50.781Z,101637.69
2022-11-07T16:15:23.258Z,101641.41
2022-11-07T16:17:50.449Z,101632.66
2022-11-07T16:20:25.389Z,101626.44
2022-11-07T16:22:52.371Z,101633.88
2022-11-07T16:25:24.318Z,101640.28
2022-11-07T16:27:54.875Z,101636.81
2022-11-07T16:30:22.855Z,101645.84
2022-11-07T16:32:49.991Z,101645.03
2022-11-07T16:35:17.357Z,101645.16
2022-11-07T16:37:44.409Z,101647.03
2022-11-07T16:40:20.152Z,101648.97
2022-11-07T16:42:47.672Z,101646.47
2022-11-07T16:45:22.450Z,101653.63
2022-11-07T16:47:49.348Z,101649.22
2022-11-07T16:50:17.370Z,101655.44
2022-11-07T16:52:44.329Z,101653.72
2022-11-07T16:55:16.689Z,101655.53
2022-11-07T16:57:44.992Z,101649.38
2022-11-07T17:00:22.158Z,101658.28
2022-11-07T17:02:50.481Z,101659.25
2022-11-07T17:05:18.144Z,101657.44
2022-11-07T17:07:45.081Z,101670.97
2022-11-07T17:10:18.930Z,101670.00
2022-11-07T17:12:45.944Z,101671.88
2022-11-07T17:15:13.801Z,101673.81
2022-11-07T17:17:41.136Z,101673.97
2022-11-07T17:20:49.485Z,101673.13
2022-11-07T17:23:10.279Z,101670.63
2022-11-07T17:25:38.547Z,101680.38
2022-11-07T17:28:06.995Z,101681.25
2022-11-07T17:30:34.094Z,101683.94
2022-11-07T17:33:03.418Z,101684.88
2022-11-07T17:35:33.006Z,101692.09
2022-11-07T17:38:00.172Z,101693.91
2022-11-07T17:40:30.538Z,101692.16
2022-11-07T17:42:58.522Z,101693.00
2022-11-07T17:45:27.240Z,101692.25
2022-11-07T17:47:54.683Z,101695.97
2022-11-07T17:50:22.952Z,101701.34
2022-11-07T17:52:52.186Z,101703.16
2022-11-07T17:55:20.165Z,101702.28
2022-11-07T17:57:47.875Z,101703.06
2022-11-07T18:00:19.952Z,101705.66
2022-11-07T18:02:50.035Z,101705.56
2022-11-07T18:05:20.832Z,101701.97
2022-11-07T18:07:47.943Z,101701.97
2022-11-07T18:10:16.049Z,101704.53
2022-11-07T18:12:43.650Z,101699.28
2022-11-07T18:15:14.576Z,101709.13
2022-11-07T18:17:42.297Z,101712.75
2022-11-07T18:20:10.708Z,101712.84
2022-11-07T18:22:38.555Z,101712.84
2022-11-07T18:25:07.261Z,101717.34
2022-11-07T18:27:34.300Z,101718.41
2022-11-07T18:30:03.009Z,101722.81
2022-11-07T18:32:35.678Z,101725.59
2022-11-07T18:35:06.034Z,101729.28
2022-11-07T18:37:33.936Z,101728.50
2022-11-07T18:40:00.925Z,101723.22
2022-11-07T18:42:29.131Z,101719.75
2022-11-07T18:44:56.086Z,101721.56
2022-11-07T18:47:23.692Z,101721.63
2022-11-07T18:49:55.639Z,101715.50
2022-11-07T18:52:24.458Z,101716.44
2022-11-07T18:54:51.887Z,101719.22
2022-11-07T18:57:19.711Z,101721.03
2022-11-07T18:59:47.179Z,101729.09
2022-11-07T19:02:14.944Z,101730.81
2022-11-07T19:04:46.380Z,101726.41
2022-11-07T19:07:13.282Z,101721.97
2022-11-07T19:09:40.138Z,101717.56
2022-11-07T19:12:07.472Z,101716.69
2022-11-07T19:14:34.918Z,101722.94
2022-11-07T19:17:01.881Z,101725.72
2022-11-07T19:19:28.841Z,101730.22
2022-11-07T19:21:55.890Z,101724.84
2022-11-07T19:24:22.802Z,101731.13
2022-11-07T19:26:49.765Z,101726.72
2022-11-07T19:29:16.937Z,101737.47
2022-11-07T19:31:44.081Z,101735.81
2022-11-07T19:34:11.027Z,101745.69
2022-11-07T19:36:37.965Z,101743.94
2022-11-07T19:39:04.912Z,101759.09
2022-11-07T19:41:31.849Z,101755.53
2022-11-07T19:44:02.046Z,101752.94
2022-11-07T19:46:30.099Z,101759.25
2022-11-07T19:48:57.228Z,101758.44
2022-11-07T19:51:24.326Z,101757.59
2022-11-07T19:53:57.998Z,101759.34
2022-11-07T19:56:28.737Z,101763.75
2022-11-07T19:58:59.081Z,101760.28
2022-11-07T20:01:31.457Z,101759.41
2022-11-07T20:04:02.045Z,101755.78
2022-11-07T20:06:39.276Z,101765.56
2022-11-07T20:09:09.243Z,101763.81
2022-11-07T20:11:36.818Z,101762.94
2022-11-07T20:14:04.620Z,101767.47
2022-11-07T20:16:33.987Z,101770.94
2022-11-07T20:19:01.978Z,101771.88
2022-11-07T20:21:30.372Z,101781.66
2022-11-07T20:23:59.494Z,101769.19
2022-11-07T20:26:29.977Z,101787.97
2022-11-07T20:28:57.077Z,101786.16
2022-11-07T20:31:28.182Z,101792.31
2022-11-07T20:33:58.959Z,101792.31
2022-11-07T20:36:26.695Z,101792.31
2022-11-07T20:38:55.422Z,101794.13
2022-11-07T20:41:23.652Z,101798.53
2022-11-07T20:44:02.145Z,101797.59
2022-11-07T20:46:31.559Z,101795.84
2022-11-07T20:48:59.748Z,101794.13
2022-11-07T20:51:27.185Z,101801.22
2022-11-07T20:53:54.897Z,101807.44
2022-11-07T20:56:24.397Z,101812.81
2022-11-07T20:58:51.570Z,101796.81
2022-11-07T21:01:23.528Z,101804.94
2022-11-07T21:03:51.117Z,101817.47
2022-11-07T21:06:18.906Z,101805.97
2022-11-07T21:08:49.260Z,101810.47
2022-11-07T21:11:16.880Z,101822.06
2022-11-07T21:13:49.718Z,101805.97
2022-11-07T21:16:21.792Z,101819.38
2022-11-07T21:18:50.622Z,101814.88
2022-11-07T21:21:22.080Z,101814.88
2022-11-07T21:23:50.455Z,101815.75
2022-11-07T21:26:30.205Z,101812.19
2022-11-07T21:28:58.194Z,101817.63
2022-11-07T21:31:28.615Z,101814.94
2022-11-07T21:33:57.594Z,101813.16
2022-11-07T21:36:27.827Z,101812.25
2022-11-07T21:38:56.875Z,101814.88
2022-11-07T21:41:24.225Z,101807.94
2022-11-07T21:43:51.670Z,101815.19
2022-11-07T21:46:31.509Z,101808.00
2022-11-07T21:48:59.080Z,101806.44
2022-11-07T21:51:32.335Z,101808.25
2022-11-07T21:54:00.237Z,101805.63
2022-11-07T21:56:30.335Z,101802.09
2022-11-07T21:59:01.062Z,101802.09
2022-11-07T22:01:29.865Z,101801.22
2022-11-07T22:04:06.871Z,101811.97
2022-11-07T22:06:37.744Z,101806.75
2022-11-07T22:09:07.296Z,101803.91
2022-11-07T22:11:34.504Z,101801.38
2022-11-07T22:14:01.737Z,101796.97
2022-11-07T22:16:29.403Z,101789.88
2022-11-07T22:18:56.504Z,101788.13
2022-11-07T22:21:23.868Z,101790.91
2022-11-07T22:23:51.425Z,101799.03
2022-11-07T22:26:24.576Z,101792.88
2022-11-07T22:28:51.834Z,101797.44
2022-11-07T22:31:25.211Z,101801.25
2022-11-07T22:33:54.114Z,101799.72
2022-11-07T22:36:21.992Z,101796.50
2022-11-07T22:38:49.576Z,101795.69
2022-11-07T22:41:24.658Z,101800.50
2022-11-07T22:43:52.171Z,101794.41
2022-11-07T22:46:23.222Z,101792.72
2022-11-07T22:48:51.792Z,101805.41
2022-11-07T22:51:28.892Z,101799.28
2022-11-07T22:54:08.066Z,101798.53
2022-11-07T22:56:36.437Z,101794.28
2022-11-07T22:59:05.835Z,101800.59
2022-11-07T23:01:41.530Z,101789.00
2022-11-07T23:04:14.267Z,101798.06
2022-11-07T23:06:41.681Z,101786.63
2022-11-07T23:09:08.520Z,101784.97
2022-11-07T23:11:51.837Z,101789.47
2022-11-07T23:14:21.443Z,101783.41
2022-11-07T23:16:53.588Z,101793.53
2022-11-07T23:19:24.161Z,101788.47
2022-11-07T23:21:53.522Z,101787.75
2022-11-07T23:24:20.788Z,101792.31
2022-11-07T23:26:48.862Z,101794.34
2022-11-07T23:29:20.755Z,101789.06
2022-11-07T23:31:50.963Z,101793.59
2022-11-07T23:34:20.728Z,101796.38
2022-11-07T23:36:51.866Z,101788.44
2022-11-07T23:39:22.182Z,101789.34
2022-11-07T23:41:49.456Z,101788.47
2022-11-07T23:44:16.676Z,101780.53
2022-11-07T23:47:02.642Z,101789.50
2022-11-07T23:49:48.215Z,101785.09
2022-11-07T23:52:15.235Z,101794.84
2022-11-07T23:55:01.138Z,101790.44
2022-11-07T23:57:29.890Z,101792.25
